createdAt,value
2019-04-07T00:01:32.211Z,91440.20
2019-04-07T00:04:21.498Z,91444.16
2019-04-07T00:07:09.533Z,91439.12
2019-04-07T00:09:57.987Z,91441.90
2019-04-07T00:12:46.502Z,91438.45
2019-04-07T00:15:35.231Z,91440.44
2019-04-07T00:18:23.023Z,91432.11
2019-04-07T00:21:12.486Z,91430.39
2019-04-07T00:24:02.409Z,91425.46
2019-04-07T00:26:51.287Z,91425.31
2019-04-07T00:29:39.590Z,91426.27
2019-04-07T00:32:28.446Z,91420.89
2019-04-07T00:35:26.486Z,91422.34
2019-04-07T00:38:06.283Z,91415.97
2019-04-07T00:40:55.459Z,91414.83
2019-04-07T00:43:44.537Z,91413.02
2019-04-07T00:46:33.237Z,91411.97
2019-04-07T00:49:21.735Z,91411.77
2019-04-07T00:52:10.823Z,91403.03
2019-04-07T00:54:58.921Z,91407.67
2019-04-07T00:57:47.117Z,91407.62
2019-04-07T01:00:36.616Z,91403.86
2019-04-07T01:03:26.043Z,91404.60
2019-04-07T01:06:14.611Z,91402.63
2019-04-07T01:09:04.510Z,91403.66
2019-04-07T01:11:52.812Z,91400.60
2019-04-07T01:14:41.853Z,91398.30
2019-04-07T01:17:30.406Z,91395.09
2019-04-07T01:20:19.480Z,91399.16
2019-04-07T01:23:08.131Z,91389.80
2019-04-07T01:25:55.970Z,91387.76
2019-04-07T01:28:44.926Z,91383.09
2019-04-07T01:31:34.140Z,91381.58
2019-04-07T01:34:23.971Z,91382.75
2019-04-07T01:37:13.611Z,91383.87
2019-04-07T01:40:03.041Z,91375.98
2019-04-07T01:43:09.362Z,91374.84
2019-04-07T01:46:28.671Z,91371.16
2019-04-07T01:49:39.090Z,91370.03
2019-04-07T01:52:36.456Z,91369.13
2019-04-07T01:55:52.193Z,91369.14
2019-04-07T01:59:06.698Z,91368.54
2019-04-07T02:02:12.596Z,91367.91
2019-04-07T02:05:32.279Z,91368.70
2019-04-07T02:08:38.625Z,91355.83
2019-04-07T02:11:33.920Z,91363.98
2019-04-07T02:14:44.452Z,91368.50
2019-04-07T02:18:10.134Z,91369.81
2019-04-07T02:21:24.891Z,91364.11
2019-04-07T02:24:28.414Z,91367.40
2019-04-07T02:27:31.784Z,91361.27
2019-04-07T02:30:37.556Z,91357.00
2019-04-07T02:33:34.971Z,91361.59
2019-04-07T02:36:43.097Z,91352.74
2019-04-07T02:39:53.494Z,91349.95
2019-04-07T02:43:09.119Z,91347.98
2019-04-07T02:46:25.509Z,91343.73
2019-04-07T02:49:45.642Z,91343.47
2019-04-07T02:52:59.415Z,91342.41
2019-04-07T02:56:07.790Z,91346.92
2019-04-07T02:59:21.366Z,91338.31
2019-04-07T03:02:25.040Z,91339.25
2019-04-07T03:05:33.299Z,91339.62
2019-04-07T03:08:47.486Z,91331.35
2019-04-07T03:12:00.378Z,91329.03
2019-04-07T03:15:00.588Z,91325.16
2019-04-07T03:18:06.971Z,91332.41
2019-04-07T03:21:15.877Z,91331.27
2019-04-07T03:24:34.960Z,91331.28
2019-04-07T03:27:48.715Z,91321.16
2019-04-07T03:30:45.444Z,91325.66
2019-04-07T03:33:51.929Z,91319.36
2019-04-07T03:37:11.684Z,91325.20
2019-04-07T03:39:56.928Z,91322.19
2019-04-07T03:42:53.992Z,91320.45
2019-04-07T03:46:00.689Z,91325.58
2019-04-07T03:49:02.040Z,91325.21
2019-04-07T03:52:00.055Z,91329.67
2019-04-07T03:55:06.645Z,91333.88
2019-04-07T03:58:14.935Z,91330.09
2019-04-07T04:01:25.506Z,91323.09
2019-04-07T04:04:34.272Z,91324.31
2019-04-07T04:07:44.105Z,91324.51
2019-04-07T04:10:51.647Z,91319.48
2019-04-07T04:13:59.218Z,91327.66
2019-04-07T04:16:50.769Z,91328.20
2019-04-07T04:19:40.667Z,91327.68
2019-04-07T04:22:29.335Z,91334.00
2019-04-07T04:25:19.160Z,91336.04
2019-04-07T04:28:07.876Z,91341.98
2019-04-07T04:30:56.728Z,91342.73
2019-04-07T04:33:45.064Z,91342.32
2019-04-07T04:36:33.602Z,91343.42
2019-04-07T04:39:22.787Z,91345.84
2019-04-07T04:42:14.156Z,91342.42
2019-04-07T04:45:02.690Z,91343.92
2019-04-07T04:47:51.637Z,91346.41
2019-04-07T04:50:40.576Z,91348.95
2019-04-07T04:53:30.791Z,91347.19
2019-04-07T04:56:19.941Z,91351.02
2019-04-07T04:59:09.409Z,91357.94
2019-04-07T05:01:57.809Z,91351.40
2019-04-07T05:04:47.056Z,91358.32
2019-04-07T05:07:48.838Z,91360.36
2019-04-07T05:10:25.304Z,91366.38
2019-04-07T05:13:14.049Z,91368.66
2019-04-07T05:16:02.627Z,91367.80
2019-04-07T05:18:50.457Z,91371.45
2019-04-07T05:21:38.388Z,91367.91
2019-04-07T05:24:26.929Z,91365.16
2019-04-07T05:27:15.042Z,91366.72
2019-04-07T05:30:03.469Z,91363.47
2019-04-07T05:32:52.372Z,91362.89
2019-04-07T05:35:40.972Z,91365.71
2019-04-07T05:38:30.226Z,91365.45
2019-04-07T05:41:18.735Z,91367.08
2019-04-07T05:44:07.753Z,91371.22
2019-04-07T05:46:57.053Z,91376.12
2019-04-07T05:49:45.350Z,91379.44
2019-04-07T05:52:38.584Z,91382.77
2019-04-07T05:55:24.388Z,91373.30
2019-04-07T05:58:15.519Z,91380.41
2019-04-07T06:01:02.826Z,91378.68
2019-04-07T06:03:52.209Z,91377.20
2019-04-07T06:06:42.039Z,91377.27
2019-04-07T06:09:33.533Z,91378.23
2019-04-07T06:12:20.327Z,91387.18
2019-04-07T06:15:09.680Z,91382.05
2019-04-07T06:18:01.099Z,91390.00
2019-04-07T06:20:47.758Z,91384.46
2019-04-07T06:23:36.445Z,91383.48
2019-04-07T06:26:26.519Z,91388.39
2019-04-07T06:29:16.060Z,91387.63
2019-04-07T06:32:06.194Z,91392.39
2019-04-07T06:34:53.877Z,91382.58
2019-04-07T06:37:42.961Z,91384.88
2019-04-07T06:40:32.182Z,91383.03
2019-04-07T06:43:21.130Z,91382.13
2019-04-07T06:46:30.804Z,91387.36
2019-04-07T06:49:37.298Z,91389.48
2019-04-07T06:52:46.908Z,91395.00
2019-04-07T06:56:01.323Z,91395.05
2019-04-07T06:59:11.868Z,91393.28
2019-04-07T07:02:13.300Z,91392.77
2019-04-07T07:05:28.969Z,91390.66
2019-04-07T07:08:26.901Z,91387.45
2019-04-07T07:11:42.835Z,91387.28
2019-04-07T07:14:47.501Z,91383.98
2019-04-07T07:18:00.623Z,91388.91
2019-04-07T07:21:14.509Z,91390.22
2019-04-07T07:24:02.931Z,91394.27
2019-04-07T07:26:50.841Z,91394.52
2019-04-07T07:29:39.864Z,91389.36
2019-04-07T07:32:29.148Z,91397.38
2019-04-07T07:35:18.048Z,91403.09
2019-04-07T07:38:06.027Z,91396.05
2019-04-07T07:40:53.991Z,91398.30
2019-04-07T07:43:42.429Z,91393.57
2019-04-07T07:46:31.016Z,91394.81
2019-04-07T07:49:19.395Z,91391.25
2019-04-07T07:52:08.052Z,91390.49
2019-04-07T07:54:59.796Z,91394.01
2019-04-07T07:57:45.367Z,91386.59
2019-04-07T08:00:37.169Z,91382.95
2019-04-07T08:03:23.932Z,91373.43
2019-04-07T08:06:12.565Z,91374.66
2019-04-07T08:09:10.806Z,91370.64
2019-04-07T08:11:55.300Z,91370.68
2019-04-07T08:14:44.819Z,91367.48
2019-04-07T08:17:33.948Z,91363.38
2019-04-07T08:20:23.149Z,91365.00
2019-04-07T08:23:12.192Z,91365.55
2019-04-07T08:26:00.670Z,91359.59
2019-04-07T08:28:49.396Z,91363.08
2019-04-07T08:31:38.290Z,91357.49
2019-04-07T08:34:30.503Z,91358.88
2019-04-07T08:37:17.887Z,91355.69
2019-04-07T08:40:07.685Z,91355.03
2019-04-07T08:42:56.137Z,91352.68
2019-04-07T08:45:44.903Z,91345.69
2019-04-07T08:48:33.429Z,91347.00
2019-04-07T08:51:22.383Z,91343.41
2019-04-07T08:54:13.829Z,91350.41
2019-04-07T08:57:00.849Z,91345.78
2019-04-07T08:59:50.674Z,91354.37
2019-04-07T09:02:40.004Z,91355.98
2019-04-07T09:05:31.035Z,91349.28
2019-04-07T09:08:17.938Z,91348.45
2019-04-07T09:11:20.012Z,91352.61
2019-04-07T09:14:06.466Z,91352.43
2019-04-07T09:17:29.274Z,91349.81
2019-04-07T09:20:44.274Z,91346.42
2019-04-07T09:23:50.601Z,91338.48
2019-04-07T09:26:56.295Z,91338.42
2019-04-07T09:29:57.667Z,91344.32
2019-04-07T09:32:58.784Z,91337.69
2019-04-07T09:36:10.175Z,91333.04
2019-04-07T09:39:08.378Z,91335.03
2019-04-07T09:42:28.001Z,91336.56
2019-04-07T09:45:41.416Z,91333.69
2019-04-07T09:49:03.469Z,91333.34
2019-04-07T09:52:01.018Z,91332.92
2019-04-07T09:55:10.656Z,91321.05
2019-04-07T09:58:20.358Z,91324.78
2019-04-07T10:01:19.901Z,91322.16
2019-04-07T10:04:27.471Z,91309.63
2019-04-07T10:07:44.005Z,91314.14
2019-04-07T10:10:41.600Z,91311.25
2019-04-07T10:13:57.792Z,91311.41
2019-04-07T10:17:23.315Z,91311.83
2019-04-07T10:20:26.357Z,91308.00
2019-04-07T10:23:32.140Z,91306.44
2019-04-07T10:26:28.243Z,91312.11
2019-04-07T10:29:28.043Z,91307.91
2019-04-07T10:32:41.729Z,91298.25
2019-04-07T10:35:58.297Z,91298.96
2019-04-07T10:39:04.833Z,91302.37
2019-04-07T10:42:09.823Z,91298.41
2019-04-07T10:45:10.780Z,91301.84
2019-04-07T10:48:17.930Z,91298.27
2019-04-07T10:51:31.995Z,91294.34
2019-04-07T10:54:27.031Z,91299.92
2019-04-07T10:57:36.929Z,91294.74
2019-04-07T11:00:52.663Z,91297.09
2019-04-07T11:03:54.845Z,91292.52
2019-04-07T11:07:17.455Z,91290.05
2019-04-07T11:10:30.677Z,91294.28
2019-04-07T11:13:27.791Z,91298.02
2019-04-07T11:16:40.472Z,91290.94
2019-04-07T11:19:45.987Z,91295.88
2019-04-07T11:23:00.934Z,91295.59
2019-04-07T11:26:13.996Z,91296.94
2019-04-07T11:29:09.510Z,91291.48
2019-04-07T11:32:08.759Z,91287.44
2019-04-07T11:35:22.193Z,91293.41
2019-04-07T11:38:35.378Z,91287.08
2019-04-07T11:41:54.828Z,91290.00
2019-04-07T11:45:03.111Z,91292.66
2019-04-07T11:48:09.992Z,91286.56
2019-04-07T11:51:09.652Z,91282.64
2019-04-07T11:54:20.160Z,91278.95
2019-04-07T11:57:44.768Z,91275.40
2019-04-07T12:00:51.390Z,91273.64
2019-04-07T12:03:49.203Z,91268.18
2019-04-07T12:07:08.880Z,91261.55
2019-04-07T12:10:31.885Z,91272.03
2019-04-07T12:13:35.699Z,91259.40
2019-04-07T12:16:41.380Z,91250.37
2019-04-07T12:19:34.006Z,91250.74
2019-04-07T12:22:29.667Z,91251.84
2019-04-07T12:25:29.352Z,91250.03
2019-04-07T12:28:34.374Z,91250.37
2019-04-07T12:31:45.012Z,91245.34
2019-04-07T12:34:56.631Z,91244.41
2019-04-07T12:38:10.050Z,91241.52
2019-04-07T12:41:18.346Z,91238.11
2019-04-07T12:44:11.538Z,91244.31
2019-04-07T12:47:33.216Z,91230.56
2019-04-07T12:50:43.655Z,91236.22
2019-04-07T12:53:50.575Z,91237.69
2019-04-07T12:57:02.558Z,91237.34
2019-04-07T13:00:07.344Z,91237.62
2019-04-07T13:03:13.909Z,91232.42
2019-04-07T13:06:00.646Z,91230.28
2019-04-07T13:08:54.909Z,91228.42
2019-04-07T13:11:45.735Z,91230.33
2019-04-07T13:14:32.397Z,91223.27
2019-04-07T13:17:22.170Z,91222.14
2019-04-07T13:20:21.221Z,91222.73
2019-04-07T13:23:01.545Z,91221.56
2019-04-07T13:25:38.568Z,91224.47
2019-04-07T13:28:30.862Z,91225.98
2019-04-07T13:31:26.490Z,91215.75
2019-04-07T13:34:33.774Z,91217.00
2019-04-07T13:37:10.086Z,91212.63
2019-04-07T13:40:01.909Z,91206.19
2019-04-07T13:42:38.991Z,91203.97
2019-04-07T13:45:23.297Z,91211.20
2019-04-07T13:48:11.562Z,91204.14
2019-04-07T13:51:13.749Z,91195.94
2019-04-07T13:54:02.158Z,91194.12
2019-04-07T13:56:58.142Z,91196.27
2019-04-07T13:59:45.304Z,91186.48
2019-04-07T14:02:31.565Z,91187.27
2019-04-07T14:05:27.289Z,91182.31
2019-04-07T14:08:16.964Z,91185.44
2019-04-07T14:10:58.222Z,91187.39
2019-04-07T14:13:51.096Z,91186.84
2019-04-07T14:16:46.483Z,91186.19
2019-04-07T14:19:38.638Z,91187.58
2019-04-07T14:22:19.273Z,91186.81
2019-04-07T14:24:56.721Z,91190.16
2019-04-07T14:27:46.227Z,91184.58
2019-04-07T14:30:41.233Z,91176.31
2019-04-07T14:33:23.027Z,91179.34
2019-04-07T14:36:25.068Z,91184.92
2019-04-07T14:39:08.526Z,91182.53
2019-04-07T14:41:49.804Z,91176.86
2019-04-07T14:44:26.151Z,91178.37
2019-04-07T14:47:15.019Z,91173.05
2019-04-07T14:49:56.158Z,91180.38
2019-04-07T14:52:37.200Z,91186.05
2019-04-07T14:55:41.932Z,91182.84
2019-04-07T14:58:19.254Z,91181.29
2019-04-07T15:01:03.448Z,91184.08
2019-04-07T15:03:31.753Z,91180.28
2019-04-07T15:06:01.784Z,91180.39
2019-04-07T15:08:53.700Z,91180.27
2019-04-07T15:11:32.306Z,91178.52
2019-04-07T15:14:02.805Z,91177.23
2019-04-07T15:16:33.976Z,91176.66
2019-04-07T15:19:05.558Z,91176.89
2019-04-07T15:21:36.307Z,91176.06
2019-04-07T15:24:08.473Z,91173.31
2019-04-07T15:26:38.953Z,91173.14
2019-04-07T15:29:10.799Z,91172.72
2019-04-07T15:31:41.837Z,91175.00
2019-04-07T15:34:14.135Z,91166.92
2019-04-07T15:36:43.968Z,91175.53
2019-04-07T15:39:14.010Z,91178.62
2019-04-07T15:41:44.487Z,91180.69
2019-04-07T15:44:16.501Z,91173.43
2019-04-07T15:46:52.388Z,91187.08
2019-04-07T15:49:18.455Z,91187.69
2019-04-07T15:51:49.795Z,91183.59
2019-04-07T15:54:23.336Z,91182.14
2019-04-07T15:56:52.838Z,91185.89
2019-04-07T15:59:23.210Z,91194.19
2019-04-07T16:01:57.330Z,91191.52
2019-04-07T16:04:29.607Z,91193.97
2019-04-07T16:07:00.243Z,91191.83
2019-04-07T16:09:39.693Z,91189.81
2019-04-07T16:12:03.708Z,91195.68
2019-04-07T16:14:34.069Z,91196.38
2019-04-07T16:17:06.340Z,91197.50
2019-04-07T16:19:42.223Z,91194.52
2019-04-07T16:22:11.259Z,91193.98
2019-04-07T16:24:39.630Z,91201.52
2019-04-07T16:27:10.879Z,91201.48
2019-04-07T16:29:41.177Z,91192.22
2019-04-07T16:32:12.456Z,91205.19
2019-04-07T16:34:43.643Z,91203.28
2019-04-07T16:37:14.519Z,91206.48
2019-04-07T16:39:44.654Z,91203.13
2019-04-07T16:42:15.442Z,91210.96
2019-04-07T16:44:45.980Z,91207.61
2019-04-07T16:47:22.495Z,91209.41
2019-04-07T16:49:49.012Z,91214.81
2019-04-07T16:52:19.050Z,91223.02
2019-04-07T16:54:49.039Z,91219.57
2019-04-07T16:57:18.977Z,91217.87
2019-04-07T16:59:49.130Z,91224.82
2019-04-07T17:02:19.472Z,91222.52
2019-04-07T17:04:50.457Z,91223.22
2019-04-07T17:07:22.178Z,91226.36
2019-04-07T17:09:54.971Z,91226.71
2019-04-07T17:12:24.241Z,91228.52
2019-04-07T17:14:54.296Z,91226.01
2019-04-07T17:17:27.060Z,91231.83
2019-04-07T17:19:59.449Z,91242.67
2019-04-07T17:22:29.092Z,91237.46
2019-04-07T17:25:02.050Z,91239.92
2019-04-07T17:27:31.456Z,91241.77
2019-04-07T17:30:03.343Z,91237.56
2019-04-07T17:32:35.685Z,91237.20
2019-04-07T17:35:07.283Z,91239.20
2019-04-07T17:37:37.934Z,91239.80
2019-04-07T17:40:14.760Z,91248.00
2019-04-07T17:42:48.162Z,91242.83
2019-04-07T17:45:33.353Z,91244.23
2019-04-07T17:48:21.340Z,91252.92
2019-04-07T17:51:10.070Z,91244.95
2019-04-07T17:54:12.218Z,91247.81
2019-04-07T17:56:55.006Z,91251.86
2019-04-07T18:00:00.253Z,91254.56
2019-04-07T18:02:47.607Z,91253.54
2019-04-07T18:05:39.303Z,91251.44
2019-04-07T18:08:19.903Z,91256.48
2019-04-07T18:11:09.914Z,91251.00
2019-04-07T18:14:07.837Z,91251.64
2019-04-07T18:16:55.563Z,91250.20
2019-04-07T18:19:35.177Z,91256.38
2019-04-07T18:22:28.671Z,91259.37
2019-04-07T18:25:14.914Z,91257.67
2019-04-07T18:27:54.582Z,91259.36
2019-04-07T18:30:53.832Z,91264.01
2019-04-07T18:33:50.749Z,91267.78
2019-04-07T18:36:45.948Z,91271.43
2019-04-07T18:39:57.446Z,91267.17
2019-04-07T18:42:44.366Z,91274.77
2019-04-07T18:45:36.507Z,91273.09
2019-04-07T18:48:35.982Z,91272.67
2019-04-07T18:51:25.184Z,91274.72
2019-04-07T18:54:26.910Z,91272.40
2019-04-07T18:57:15.300Z,91270.16
2019-04-07T19:00:05.443Z,91270.29
2019-04-07T19:02:54.701Z,91275.20
2019-04-07T19:05:42.618Z,91281.77
2019-04-07T19:08:34.938Z,91276.34
2019-04-07T19:11:26.562Z,91275.27
2019-04-07T19:14:30.525Z,91273.93
2019-04-07T19:17:05.726Z,91271.51
2019-04-07T19:19:53.882Z,91272.08
2019-04-07T19:22:46.533Z,91276.17
2019-04-07T19:25:33.661Z,91270.78
2019-04-07T19:28:26.153Z,91265.98
2019-04-07T19:31:27.632Z,91271.70
2019-04-07T19:34:17.254Z,91268.67
2019-04-07T19:37:20.171Z,91265.17
2019-04-07T19:40:04.336Z,91260.31
2019-04-07T19:42:50.555Z,91263.60
2019-04-07T19:45:48.965Z,91257.29
2019-04-07T19:48:42.752Z,91261.48
2019-04-07T19:51:31.901Z,91258.42
2019-04-07T19:54:19.002Z,91255.45
2019-04-07T19:57:04.754Z,91251.92
2019-04-07T20:00:26.117Z,91256.44
2019-04-07T20:03:30.663Z,91259.45
2019-04-07T20:06:47.269Z,91261.27
2019-04-07T20:09:48.029Z,91257.23
2019-04-07T20:12:45.163Z,91257.09
2019-04-07T20:15:47.791Z,91254.88
2019-04-07T20:19:04.473Z,91258.30
2019-04-07T20:22:16.371Z,91255.47
2019-04-07T20:25:31.624Z,91258.41
2019-04-07T20:28:35.856Z,91262.73
2019-04-07T20:31:42.816Z,91257.13
2019-04-07T20:34:50.500Z,91260.30
2019-04-07T20:38:12.639Z,91248.63
2019-04-07T20:41:16.112Z,91248.63
2019-04-07T20:44:32.552Z,91250.02
2019-04-07T20:47:36.150Z,91255.47
2019-04-07T20:50:43.565Z,91249.69
2019-04-07T20:53:47.572Z,91257.55
2019-04-07T20:57:09.483Z,91248.23
2019-04-07T21:00:08.144Z,91252.05
2019-04-07T21:03:21.448Z,91247.33
2019-04-07T21:06:27.486Z,91250.75
2019-04-07T21:09:33.383Z,91249.13
2019-04-07T21:12:48.312Z,91251.06
2019-04-07T21:15:57.374Z,91250.25
2019-04-07T21:18:56.395Z,91247.38
2019-04-07T21:22:06.807Z,91240.26
2019-04-07T21:25:23.874Z,91240.09
2019-04-07T21:28:18.277Z,91234.64
2019-04-07T21:31:22.894Z,91239.75
2019-04-07T21:34:20.753Z,91231.78
2019-04-07T21:37:23.757Z,91228.05
2019-04-07T21:40:22.907Z,91225.64
2019-04-07T21:43:29.940Z,91225.83
2019-04-07T21:46:37.032Z,91226.51
2019-04-07T21:49:51.482Z,91220.20
2019-04-07T21:53:01.338Z,91220.20
2019-04-07T21:56:03.899Z,91214.58
2019-04-07T21:59:08.603Z,91216.98
2019-04-07T22:02:17.471Z,91211.83
2019-04-07T22:05:37.063Z,91211.47
2019-04-07T22:08:30.525Z,91207.85
2019-04-07T22:11:22.599Z,91205.97
2019-04-07T22:14:08.866Z,91198.66
2019-04-07T22:16:57.339Z,91201.91
2019-04-07T22:19:47.061Z,91197.48
2019-04-07T22:22:35.283Z,91202.44
2019-04-07T22:25:30.851Z,91202.94
2019-04-07T22:28:19.319Z,91201.66
2019-04-07T22:31:12.859Z,91199.77
2019-04-07T22:34:01.023Z,91198.82
2019-04-07T22:36:48.220Z,91202.36
2019-04-07T22:39:37.549Z,91201.31
2019-04-07T22:42:26.090Z,91201.20
2019-04-07T22:45:14.933Z,91193.45
2019-04-07T22:48:03.511Z,91192.41
2019-04-07T22:50:51.879Z,91189.19
2019-04-07T22:53:40.177Z,91183.70
2019-04-07T22:56:29.855Z,91176.36
2019-04-07T22:59:20.464Z,91181.18
2019-04-07T23:02:08.782Z,91169.82
2019-04-07T23:04:57.340Z,91174.84
2019-04-07T23:07:45.904Z,91166.65
2019-04-07T23:10:34.468Z,91167.18
2019-04-07T23:13:23.773Z,91159.87
2019-04-07T23:16:15.120Z,91158.30
2019-04-07T23:19:01.466Z,91157.42
2019-04-07T23:21:51.266Z,91154.20
2019-04-07T23:24:39.696Z,91151.91
2019-04-07T23:27:29.726Z,91154.65
2019-04-07T23:30:19.398Z,91154.79
2019-04-07T23:33:08.344Z,91155.07
2019-04-07T23:35:56.347Z,91156.59
2019-04-07T23:38:43.993Z,91156.47
2019-04-07T23:41:32.625Z,91154.70
2019-04-07T23:44:21.424Z,91158.24
2019-04-07T23:47:09.768Z,91152.97
2019-04-07T23:49:58.682Z,91155.08
2019-04-07T23:52:47.554Z,91155.77
2019-04-07T23:55:36.280Z,91147.05
2019-04-07T23:58:24.109Z,91144.58
